Time;durP1;ratioP1;P1;durP2;ratioP2;P2;SDS_P1;SDS_P2;PMS_P1;PMS_P2;Temp;Humidity;BMP_temperature;BMP_pressure;BME280_temperature;BME280_humidity;BME280_pressure;Samples;Min_cycle;Max_cycle;Signal;HPM_P1;HPM_P2
2023/10/31 00:00:23;;;;;;;13.38;2.08;;;;;;;;;;5064465;28;20067;-86
2023/10/31 00:02:50;;;;;;;9.68;1.38;;;;;;;;;;5058316;28;20036;-88
2023/10/31 00:05:16;;;;;;;9.52;1.63;;;;;;;;;;5044106;28;20485;-90
2023/10/31 00:07:42;;;;;;;7.75;1.83;;;;;;;;;;5046685;28;20043;-89
2023/10/31 00:10:09;;;;;;;7.13;1.75;;;;;;;;;;5063016;28;20036;-90
2023/10/31 00:12:35;;;;;;;11.93;1.67;;;;;;;;;;5061004;28;20391;-89
2023/10/31 00:15:01;;;;;;;19.42;1.95;;;;;;;;;;5046763;28;20075;-90
2023/10/31 00:17:27;;;;;;;5.57;1.70;;;;;;;;;;5040890;28;20044;-90
2023/10/31 00:19:53;;;;;;;8.05;1.77;;;;;;;;;;5062597;28;20462;-89
2023/10/31 00:22:19;;;;;;;11.93;1.90;;;;;;;;;;5050660;28;20041;-86
2023/10/31 00:24:45;;;;;;;9.63;1.88;;;;;;;;;;5048331;28;20051;-87
2023/10/31 00:27:11;;;;;;;11.90;2.05;;;;;;;;;;5030735;28;20036;-88
2023/10/31 00:29:37;;;;;;;12.43;2.70;;;;;;;;;;5070554;28;20412;-89
2023/10/31 00:32:04;;;;;;;11.52;1.80;;;;;;;;;;5052119;28;20504;-87
2023/10/31 00:34:30;;;;;;;9.32;2.00;;;;;;;;;;5049615;28;20037;-88
2023/10/31 00:36:56;;;;;;;12.60;2.10;;;;;;;;;;5050992;28;20103;-88
2023/10/31 00:39:22;;;;;;;8.80;1.67;;;;;;;;;;5067783;28;20403;-86
2023/10/31 00:41:48;;;;;;;10.02;1.90;;;;;;;;;;5051583;28;20447;-88
2023/10/31 00:44:14;;;;;;;14.18;2.13;;;;;;;;;;5038540;28;20049;-86
2023/10/31 00:46:40;;;;;;;12.88;1.85;;;;;;;;;;5068607;28;20071;-88
2023/10/31 00:49:06;;;;;;;15.32;2.78;;;;;;;;;;5068379;28;20437;-88
2023/10/31 00:51:33;;;;;;;9.75;1.90;;;;;;;;;;5068491;28;20091;-86
2023/10/31 00:53:59;;;;;;;12.00;2.13;;;;;;;;;;5064456;28;20040;-88
2023/10/31 00:56:25;;;;;;;7.53;2.30;;;;;;;;;;5050764;28;20052;-88
2023/10/31 00:58:51;;;;;;;11.27;2.13;;;;;;;;;;5065000;28;20484;-87
2023/10/31 01:01:17;;;;;;;11.52;2.30;;;;;;;;;;5066496;28;20511;-87
2023/10/31 01:03:43;;;;;;;9.55;2.00;;;;;;;;;;5049161;28;22293;-85
2023/10/31 01:06:09;;;;;;;6.10;1.98;;;;;;;;;;5048108;28;20079;-85
2023/10/31 01:08:35;;;;;;;9.50;1.90;;;;;;;;;;5065037;28;20384;-87
2023/10/31 01:11:01;;;;;;;12.95;2.38;;;;;;;;;;5032397;28;20042;-85
2023/10/31 01:13:27;;;;;;;8.32;1.85;;;;;;;;;;5045976;28;20086;-88
2023/10/31 01:15:53;;;;;;;8.30;1.67;;;;;;;;;;5048537;28;20393;-86
2023/10/31 01:18:19;;;;;;;5.32;2.05;;;;;;;;;;5050252;28;20078;-87
2023/10/31 01:20:45;;;;;;;10.88;2.60;;;;;;;;;;5045748;28;20040;-88
2023/10/31 01:23:11;;;;;;;10.77;2.30;;;;;;;;;;5035371;28;20036;-87
2023/10/31 01:25:37;;;;;;;8.00;2.38;;;;;;;;;;5046743;28;20052;-86
2023/10/31 01:28:04;;;;;;;12.88;2.20;;;;;;;;;;5049247;28;20083;-88
2023/10/31 01:30:30;;;;;;;5.78;2.35;;;;;;;;;;5023236;28;20047;-86
2023/10/31 01:32:56;;;;;;;8.25;2.65;;;;;;;;;;5047579;28;20052;-88
2023/10/31 01:35:22;;;;;;;11.45;2.85;;;;;;;;;;5048757;28;20044;-87
2023/10/31 01:37:48;;;;;;;11.07;2.72;;;;;;;;;;5046713;28;20052;-87
2023/10/31 01:40:14;;;;;;;8.93;2.67;;;;;;;;;;5062897;28;20039;-86
2023/10/31 01:42:40;;;;;;;10.63;3.40;;;;;;;;;;5065348;28;20445;-88
2023/10/31 01:45:07;;;;;;;9.63;2.80;;;;;;;;;;5032313;28;20040;-86
2023/10/31 01:47:33;;;;;;;7.60;2.83;;;;;;;;;;5042595;28;20047;-86
2023/10/31 01:49:59;;;;;;;13.40;3.60;;;;;;;;;;5048109;28;20036;-87
2023/10/31 01:52:26;;;;;;;13.27;2.97;;;;;;;;;;5062409;28;20047;-86
2023/10/31 01:54:52;;;;;;;12.38;3.17;;;;;;;;;;5029959;28;20501;-85
2023/10/31 01:57:19;;;;;;;14.65;3.63;;;;;;;;;;5048201;28;20125;-85
2023/10/31 01:59:45;;;;;;;6.47;1.83;;;;;;;;;;5066723;28;20113;-85
2023/10/31 02:02:11;;;;;;;5.38;1.77;;;;;;;;;;5046131;28;20037;-85
2023/10/31 02:04:37;;;;;;;6.90;2.05;;;;;;;;;;5046719;28;20094;-86
2023/10/31 02:07:03;;;;;;;4.15;1.50;;;;;;;;;;5046761;28;20083;-85
2023/10/31 02:09:30;;;;;;;6.47;1.80;;;;;;;;;;5067845;28;20066;-83
2023/10/31 02:11:56;;;;;;;6.57;1.88;;;;;;;;;;5064557;28;20058;-84
2023/10/31 02:14:23;;;;;;;5.63;1.58;;;;;;;;;;5049949;28;20582;-84
2023/10/31 02:16:49;;;;;;;9.10;1.63;;;;;;;;;;5045898;28;20515;-85
2023/10/31 02:19:16;;;;;;;9.30;1.70;;;;;;;;;;5033297;28;20043;-85
2023/10/31 02:21:43;;;;;;;11.93;1.52;;;;;;;;;;5052367;28;20045;-85
2023/10/31 02:24:09;;;;;;;8.90;1.80;;;;;;;;;;5048787;28;20071;-84
2023/10/31 02:26:35;;;;;;;11.20;1.83;;;;;;;;;;5047979;28;20044;-85
2023/10/31 02:29:02;;;;;;;15.05;2.58;;;;;;;;;;5044635;28;20094;-85
2023/10/31 02:31:28;;;;;;;13.20;2.05;;;;;;;;;;5048540;28;20033;-85
2023/10/31 02:33:54;;;;;;;11.80;1.75;;;;;;;;;;5065302;28;20115;-85
2023/10/31 02:36:20;;;;;;;12.35;2.17;;;;;;;;;;5043411;28;20060;-85
2023/10/31 02:38:46;;;;;;;12.32;1.73;;;;;;;;;;5062057;28;20040;-85
2023/10/31 02:41:13;;;;;;;9.93;2.30;;;;;;;;;;5063194;28;20041;-85
2023/10/31 02:43:39;;;;;;;7.43;1.67;;;;;;;;;;5028121;28;20036;-85
2023/10/31 02:46:05;;;;;;;11.50;2.03;;;;;;;;;;5043182;28;20055;-85
2023/10/31 02:48:37;;;;;;;7.32;1.77;;;;;;;;;;5057146;28;20036;-85
2023/10/31 02:51:04;;;;;;;9.88;1.67;;;;;;;;;;5061642;28;20631;-85
2023/10/31 02:53:30;;;;;;;11.43;2.65;;;;;;;;;;5046064;28;20164;-85
2023/10/31 02:55:57;;;;;;;10.25;2.10;;;;;;;;;;5046735;28;20561;-85
2023/10/31 02:58:23;;;;;;;12.77;2.17;;;;;;;;;;5047035;28;20048;-85
2023/10/31 03:00:49;;;;;;;11.50;2.53;;;;;;;;;;5048211;28;20053;-86
2023/10/31 03:03:15;;;;;;;16.77;2.80;;;;;;;;;;5031987;28;20048;-85
2023/10/31 03:05:42;;;;;;;9.23;2.30;;;;;;;;;;5055732;28;20071;-85
2023/10/31 03:08:10;;;;;;;10.52;2.28;;;;;;;;;;5064855;28;20090;-85
2023/10/31 03:10:36;;;;;;;12.90;2.67;;;;;;;;;;5049109;28;20048;-85
2023/10/31 03:13:03;;;;;;;12.45;2.60;;;;;;;;;;5047265;28;20127;-85
2023/10/31 03:15:29;;;;;;;11.35;2.70;;;;;;;;;;5063481;28;20044;-84
2023/10/31 03:17:55;;;;;;;13.50;2.65;;;;;;;;;;5045962;28;20036;-85
2023/10/31 03:20:21;;;;;;;12.93;3.05;;;;;;;;;;5047889;28;20036;-86
2023/10/31 03:22:47;;;;;;;11.85;2.20;;;;;;;;;;5046641;28;20105;-85
2023/10/31 03:25:13;;;;;;;11.82;2.20;;;;;;;;;;5046041;28;20044;-86
2023/10/31 03:27:39;;;;;;;11.95;2.25;;;;;;;;;;5027374;28;20032;-84
2023/10/31 03:30:05;;;;;;;9.60;1.90;;;;;;;;;;5029783;28;20041;-84
2023/10/31 03:32:31;;;;;;;12.10;2.00;;;;;;;;;;5046448;28;20171;-84
2023/10/31 03:34:57;;;;;;;10.50;1.95;;;;;;;;;;5026612;28;20036;-84
2023/10/31 03:37:23;;;;;;;10.38;2.30;;;;;;;;;;5047324;28;20037;-84
2023/10/31 03:39:49;;;;;;;11.95;1.92;;;;;;;;;;5025149;28;20079;-83
2023/10/31 03:42:16;;;;;;;11.25;2.38;;;;;;;;;;5041782;28;20036;-83
2023/10/31 03:44:42;;;;;;;17.65;2.40;;;;;;;;;;5038611;28;20044;-85
2023/10/31 03:47:08;;;;;;;18.00;2.83;;;;;;;;;;5038928;28;20085;-83
2023/10/31 03:49:34;;;;;;;11.20;2.95;;;;;;;;;;5045541;28;20078;-84
2023/10/31 03:52:00;;;;;;;13.57;2.08;;;;;;;;;;5063392;28;20032;-83
2023/10/31 03:54:26;;;;;;;14.48;2.55;;;;;;;;;;5044865;28;20074;-84
2023/10/31 03:56:52;;;;;;;15.15;2.95;;;;;;;;;;5044442;28;20041;-83
2023/10/31 03:59:18;;;;;;;17.83;2.53;;;;;;;;;;5028652;28;20037;-84
2023/10/31 04:01:44;;;;;;;22.73;2.75;;;;;;;;;;5050093;28;20097;-83
2023/10/31 04:04:10;;;;;;;20.77;4.47;;;;;;;;;;5046411;28;20119;-85
2023/10/31 04:06:39;;;;;;;10.10;2.40;;;;;;;;;;5042960;28;20453;-85
2023/10/31 04:09:05;;;;;;;10.45;2.40;;;;;;;;;;5048360;28;20032;-84
2023/10/31 04:11:31;;;;;;;12.52;2.70;;;;;;;;;;5046446;28;20064;-84
2023/10/31 04:13:58;;;;;;;17.65;2.97;;;;;;;;;;5063288;28;20040;-84
2023/10/31 04:16:24;;;;;;;13.02;2.13;;;;;;;;;;5047963;28;20036;-83
2023/10/31 04:18:50;;;;;;;14.07;2.97;;;;;;;;;;5047317;28;20036;-84
2023/10/31 04:21:16;;;;;;;13.27;2.67;;;;;;;;;;5048321;28;20044;-83
2023/10/31 04:23:42;;;;;;;13.77;3.15;;;;;;;;;;5041387;28;20045;-85
2023/10/31 04:26:08;;;;;;;9.18;2.85;;;;;;;;;;5060718;28;20047;-86
2023/10/31 04:28:34;;;;;;;15.65;3.65;;;;;;;;;;5045483;28;20094;-85
2023/10/31 04:31:01;;;;;;;13.05;3.75;;;;;;;;;;5045048;28;20427;-85
2023/10/31 04:33:27;;;;;;;16.30;3.47;;;;;;;;;;5045826;28;20093;-84
2023/10/31 04:35:53;;;;;;;16.25;3.17;;;;;;;;;;5044951;28;20087;-84
2023/10/31 04:38:19;;;;;;;10.00;2.63;;;;;;;;;;5043190;28;20033;-83
2023/10/31 04:40:45;;;;;;;13.27;2.90;;;;;;;;;;5044586;28;20106;-83
2023/10/31 04:43:11;;;;;;;9.73;2.58;;;;;;;;;;5044610;28;20188;-83
2023/10/31 04:45:37;;;;;;;12.73;2.05;;;;;;;;;;5064684;28;20036;-83
2023/10/31 04:48:03;;;;;;;7.43;2.00;;;;;;;;;;5042827;28;20048;-84
2023/10/31 04:50:29;;;;;;;9.00;2.53;;;;;;;;;;5063524;28;20066;-82
2023/10/31 04:52:55;;;;;;;8.90;2.15;;;;;;;;;;5060112;28;20039;-83
2023/10/31 04:55:21;;;;;;;7.57;2.08;;;;;;;;;;5060751;28;20065;-82
2023/10/31 04:57:47;;;;;;;6.97;2.20;;;;;;;;;;5049931;28;20517;-83
2023/10/31 05:00:13;;;;;;;9.80;2.40;;;;;;;;;;5048223;28;20131;-83
2023/10/31 05:02:39;;;;;;;9.30;2.58;;;;;;;;;;5062512;28;20036;-83
2023/10/31 05:05:06;;;;;;;11.82;3.10;;;;;;;;;;5027908;28;20071;-84
2023/10/31 05:07:32;;;;;;;13.00;3.10;;;;;;;;;;5062458;28;20064;-82
2023/10/31 05:09:59;;;;;;;9.82;3.35;;;;;;;;;;5051460;28;20048;-82
2023/10/31 05:12:25;;;;;;;18.75;3.85;;;;;;;;;;5033948;28;20040;-85
2023/10/31 05:14:51;;;;;;;13.98;5.20;;;;;;;;;;5030325;28;20040;-84
2023/10/31 05:17:17;;;;;;;13.52;3.80;;;;;;;;;;5050362;28;20047;-82
2023/10/31 05:19:43;;;;;;;12.23;3.13;;;;;;;;;;5051086;28;20036;-82
2023/10/31 05:22:09;;;;;;;12.27;2.90;;;;;;;;;;5062821;28;20107;-83
2023/10/31 05:24:36;;;;;;;10.95;2.70;;;;;;;;;;5066458;28;20040;-82
2023/10/31 05:27:02;;;;;;;10.07;2.40;;;;;;;;;;5033999;28;20536;-81
2023/10/31 05:29:31;;;;;;;5.80;2.20;;;;;;;;;;5056862;28;20050;-83
2023/10/31 05:31:57;;;;;;;7.45;2.60;;;;;;;;;;5029411;28;20041;-83
2023/10/31 05:34:23;;;;;;;10.35;2.50;;;;;;;;;;5054665;28;20531;-83
2023/10/31 05:36:49;;;;;;;11.13;2.45;;;;;;;;;;5067330;28;20111;-83
2023/10/31 05:39:15;;;;;;;14.45;2.72;;;;;;;;;;5050033;28;20062;-83
2023/10/31 05:41:41;;;;;;;8.70;2.22;;;;;;;;;;5051015;28;20063;-83
2023/10/31 05:44:07;;;;;;;10.75;4.03;;;;;;;;;;5048341;28;20147;-82
2023/10/31 05:46:39;;;;;;;7.40;2.47;;;;;;;;;;5047184;28;20036;-83
2023/10/31 05:49:06;;;;;;;6.82;2.20;;;;;;;;;;5052309;28;20206;-85
2023/10/31 05:51:33;;;;;;;10.35;2.60;;;;;;;;;;5066824;28;20113;-84
2023/10/31 05:54:00;;;;;;;4.85;1.98;;;;;;;;;;5067355;28;20044;-84
2023/10/31 05:56:26;;;;;;;8.63;2.40;;;;;;;;;;5053600;28;20052;-85
2023/10/31 05:58:52;;;;;;;5.15;1.50;;;;;;;;;;5034507;28;20037;-83
2023/10/31 06:01:18;;;;;;;8.32;2.40;;;;;;;;;;5066342;28;20051;-84
2023/10/31 06:03:44;;;;;;;9.15;2.60;;;;;;;;;;5067500;28;20148;-84
2023/10/31 06:06:11;;;;;;;6.75;2.33;;;;;;;;;;5034480;28;20097;-84
2023/10/31 06:08:38;;;;;;;7.68;2.92;;;;;;;;;;5052806;28;20047;-84
2023/10/31 06:11:04;;;;;;;9.55;2.92;;;;;;;;;;5054911;28;20051;-84
2023/10/31 06:13:31;;;;;;;6.40;3.35;;;;;;;;;;5053581;28;20017;-84
2023/10/31 06:15:58;;;;;;;6.50;3.22;;;;;;;;;;5053103;28;20040;-84
2023/10/31 06:18:24;;;;;;;9.45;3.28;;;;;;;;;;5066924;28;20466;-84
2023/10/31 06:20:50;;;;;;;7.90;3.83;;;;;;;;;;5046281;28;20052;-83
2023/10/31 06:23:16;;;;;;;8.52;3.30;;;;;;;;;;5067167;28;20099;-85
2023/10/31 06:25:42;;;;;;;7.03;3.50;;;;;;;;;;5066608;28;20084;-85
2023/10/31 06:28:08;;;;;;;10.10;3.50;;;;;;;;;;5051464;28;20033;-85
2023/10/31 06:30:34;;;;;;;7.45;3.70;;;;;;;;;;5053583;28;20127;-85
2023/10/31 06:33:00;;;;;;;7.13;3.67;;;;;;;;;;5051680;28;20076;-85
2023/10/31 06:35:27;;;;;;;7.35;3.30;;;;;;;;;;5050386;28;20072;-85
2023/10/31 06:37:56;;;;;;;9.68;3.75;;;;;;;;;;5050814;28;20048;-85
2023/10/31 06:40:22;;;;;;;10.02;3.55;;;;;;;;;;5053164;28;20139;-84
2023/10/31 06:42:48;;;;;;;6.38;3.50;;;;;;;;;;5049945;28;20512;-84
2023/10/31 06:45:14;;;;;;;6.70;2.90;;;;;;;;;;5067345;28;20032;-84
2023/10/31 06:47:41;;;;;;;7.95;3.65;;;;;;;;;;5070962;28;20055;-84
2023/10/31 06:50:08;;;;;;;9.20;3.65;;;;;;;;;;5049101;28;20044;-84
2023/10/31 06:52:34;;;;;;;8.57;3.33;;;;;;;;;;5047600;28;20048;-85
2023/10/31 06:55:00;;;;;;;7.20;3.25;;;;;;;;;;5070808;28;20059;-85
2023/10/31 06:57:26;;;;;;;5.25;3.05;;;;;;;;;;5064482;28;20117;-86
2023/10/31 06:59:53;;;;;;;8.68;4.00;;;;;;;;;;5067148;28;20522;-87
2023/10/31 07:02:19;;;;;;;6.25;3.42;;;;;;;;;;5051034;28;20041;-85
2023/10/31 07:04:45;;;;;;;5.88;3.70;;;;;;;;;;5041793;28;20155;-86
2023/10/31 07:07:11;;;;;;;8.75;3.22;;;;;;;;;;5051621;28;20040;-86
2023/10/31 07:09:37;;;;;;;12.25;3.85;;;;;;;;;;5066781;28;20047;-85
2023/10/31 07:12:03;;;;;;;6.90;3.65;;;;;;;;;;5049593;28;20076;-84
2023/10/31 07:14:29;;;;;;;6.65;3.22;;;;;;;;;;5068239;28;20036;-86
2023/10/31 07:16:56;;;;;;;7.95;3.42;;;;;;;;;;5068645;28;20045;-85
2023/10/31 07:19:22;;;;;;;7.38;3.28;;;;;;;;;;5030638;28;20048;-86
2023/10/31 07:21:48;;;;;;;7.25;4.03;;;;;;;;;;5049619;28;20037;-86
2023/10/31 07:24:15;;;;;;;7.15;3.83;;;;;;;;;;5049994;28;20040;-87
2023/10/31 07:26:44;;;;;;;9.07;3.88;;;;;;;;;;5049660;28;20032;-86
2023/10/31 07:29:13;;;;;;;8.95;3.90;;;;;;;;;;5029306;28;20042;-87
2023/10/31 07:31:39;;;;;;;10.23;3.78;;;;;;;;;;5051234;28;20096;-87
2023/10/31 07:34:05;;;;;;;8.70;3.70;;;;;;;;;;5066634;28;20044;-86
2023/10/31 07:36:37;;;;;;;9.55;3.63;;;;;;;;;;5053648;28;20044;-86
2023/10/31 07:39:03;;;;;;;8.18;3.20;;;;;;;;;;5033775;28;20068;-85
2023/10/31 07:41:30;;;;;;;10.82;3.47;;;;;;;;;;5035296;28;20043;-85
2023/10/31 07:43:56;;;;;;;6.70;2.72;;;;;;;;;;5051102;28;20131;-86
2023/10/31 07:46:23;;;;;;;7.03;3.03;;;;;;;;;;5037970;28;20574;-86
2023/10/31 07:48:49;;;;;;;11.27;3.50;;;;;;;;;;5028198;28;20033;-86
2023/10/31 07:51:15;;;;;;;10.15;3.28;;;;;;;;;;5054517;28;20536;-87
2023/10/31 07:53:42;;;;;;;8.57;2.80;;;;;;;;;;5061223;28;20068;-92
2023/10/31 07:56:18;;;;;;;8.10;2.90;;;;;;;;;;5067068;28;20572;-92
2023/10/31 07:58:44;;;;;;;6.60;2.67;;;;;;;;;;5053371;28;20047;-86
2023/10/31 08:01:10;;;;;;;10.32;3.50;;;;;;;;;;5051643;28;20033;-86
2023/10/31 08:03:39;;;;;;;7.72;2.83;;;;;;;;;;5067233;28;20116;-87
2023/10/31 08:06:07;;;;;;;9.88;2.70;;;;;;;;;;5055293;28;20037;-85
2023/10/31 08:08:34;;;;;;;6.50;2.85;;;;;;;;;;5048377;28;20076;-86
2023/10/31 08:11:00;;;;;;;10.70;2.83;;;;;;;;;;5044607;28;20044;-85
2023/10/31 08:13:26;;;;;;;9.35;3.28;;;;;;;;;;5069549;28;20045;-85
2023/10/31 08:15:52;;;;;;;6.13;2.28;;;;;;;;;;5065459;28;20040;-86
2023/10/31 08:18:20;;;;;;;7.88;2.38;;;;;;;;;;5051379;28;20488;-85
2023/10/31 08:20:48;;;;;;;8.90;2.22;;;;;;;;;;5050395;28;20389;-86
2023/10/31 08:23:15;;;;;;;10.32;2.97;;;;;;;;;;5069766;28;20052;-86
2023/10/31 08:25:41;;;;;;;6.95;2.75;;;;;;;;;;5053011;28;20044;-86
2023/10/31 08:28:07;;;;;;;10.85;2.80;;;;;;;;;;5053121;28;20062;-85
2023/10/31 08:30:33;;;;;;;6.40;2.45;;;;;;;;;;5037999;28;20050;-86
2023/10/31 08:32:59;;;;;;;7.13;2.38;;;;;;;;;;5071732;28;20086;-84
2023/10/31 08:35:25;;;;;;;12.68;2.90;;;;;;;;;;5038048;28;20067;-85
2023/10/31 08:37:52;;;;;;;5.47;2.03;;;;;;;;;;5051946;28;20040;-85
2023/10/31 08:40:18;;;;;;;4.00;1.83;;;;;;;;;;5066025;28;20072;-85
2023/10/31 08:42:44;;;;;;;8.63;2.42;;;;;;;;;;5074151;28;20036;-87
2023/10/31 08:45:10;;;;;;;8.00;2.25;;;;;;;;;;5074385;28;20119;-86
2023/10/31 08:47:36;;;;;;;10.25;2.58;;;;;;;;;;5056221;28;20081;-87
2023/10/31 08:50:02;;;;;;;11.55;1.73;;;;;;;;;;5058166;28;20063;-87
2023/10/31 08:52:28;;;;;;;8.10;1.33;;;;;;;;;;5068136;28;20487;-88
2023/10/31 08:54:55;;;;;;;8.93;1.45;;;;;;;;;;5053685;28;20052;-87
2023/10/31 08:57:21;;;;;;;13.10;1.83;;;;;;;;;;5067565;28;20103;-87
2023/10/31 08:59:47;;;;;;;4.65;1.38;;;;;;;;;;5074728;28;20506;-86
2023/10/31 09:02:13;;;;;;;9.85;1.27;;;;;;;;;;5055187;28;20071;-86
2023/10/31 09:04:39;;;;;;;11.95;1.45;;;;;;;;;;5056629;28;20043;-88
2023/10/31 09:07:05;;;;;;;14.00;1.30;;;;;;;;;;5056670;28;20037;-89
2023/10/31 09:09:31;;;;;;;10.35;1.30;;;;;;;;;;5071246;28;20039;-82
2023/10/31 09:11:57;;;;;;;10.43;1.17;;;;;;;;;;5055470;28;20368;-83
2023/10/31 09:14:24;;;;;;;12.23;1.20;;;;;;;;;;5074350;28;20044;-84
2023/10/31 09:16:50;;;;;;;6.80;1.23;;;;;;;;;;5037979;28;20439;-85
2023/10/31 09:19:16;;;;;;;11.00;1.30;;;;;;;;;;5048505;28;20071;-85
2023/10/31 09:21:42;;;;;;;7.70;1.27;;;;;;;;;;5055185;28;20058;-85
2023/10/31 09:24:08;;;;;;;10.57;1.83;;;;;;;;;;5056894;28;20119;-85
2023/10/31 09:26:34;;;;;;;8.93;1.13;;;;;;;;;;5039151;28;20082;-85
2023/10/31 09:29:00;;;;;;;7.25;1.40;;;;;;;;;;5066285;28;20033;-85
2023/10/31 09:31:27;;;;;;;8.18;1.08;;;;;;;;;;5038186;28;20127;-86
2023/10/31 09:33:53;;;;;;;8.48;1.63;;;;;;;;;;5053206;28;20499;-85
2023/10/31 09:36:20;;;;;;;9.85;1.10;;;;;;;;;;5055746;28;20040;-84
2023/10/31 09:38:46;;;;;;;11.60;1.42;;;;;;;;;;5054583;28;20040;-85
2023/10/31 09:41:14;;;;;;;5.75;1.15;;;;;;;;;;5074659;28;20105;-85
2023/10/31 09:43:41;;;;;;;5.20;1.17;;;;;;;;;;5071046;28;20060;-83
2023/10/31 09:46:09;;;;;;;8.10;1.80;;;;;;;;;;5039403;28;20044;-85
2023/10/31 09:48:36;;;;;;;5.90;0.90;;;;;;;;;;5074167;28;20111;-85
2023/10/31 09:51:03;;;;;;;5.47;0.80;;;;;;;;;;5058236;28;20039;-84
2023/10/31 09:53:30;;;;;;;4.30;1.20;;;;;;;;;;5071944;28;20498;-84
2023/10/31 09:55:57;;;;;;;6.97;1.42;;;;;;;;;;5044146;28;20071;-86
2023/10/31 09:58:23;;;;;;;4.32;0.70;;;;;;;;;;5059382;28;20048;-85
2023/10/31 10:00:49;;;;;;;6.35;1.13;;;;;;;;;;5056834;28;20036;-85
2023/10/31 10:03:15;;;;;;;5.90;1.08;;;;;;;;;;5052598;28;20083;-85
2023/10/31 10:05:44;;;;;;;9.07;0.80;;;;;;;;;;5055892;28;20137;-85
2023/10/31 10:08:10;;;;;;;4.85;0.75;;;;;;;;;;5057257;28;20037;-85
2023/10/31 10:10:37;;;;;;;6.75;0.80;;;;;;;;;;5070725;28;20095;-85
2023/10/31 10:13:03;;;;;;;5.00;0.80;;;;;;;;;;5074056;28;20653;-85
2023/10/31 10:15:29;;;;;;;2.55;0.82;;;;;;;;;;5071922;28;20043;-84
2023/10/31 10:17:55;;;;;;;3.97;0.70;;;;;;;;;;5048093;28;20084;-86
2023/10/31 10:20:22;;;;;;;5.68;0.70;;;;;;;;;;5071163;28;20137;-85
2023/10/31 10:22:48;;;;;;;7.18;0.90;;;;;;;;;;5056420;28;20050;-85
2023/10/31 10:25:21;;;;;;;6.78;0.88;;;;;;;;;;5054421;28;20270;-84
2023/10/31 10:27:47;;;;;;;5.80;0.85;;;;;;;;;;5040436;28;20040;-85
2023/10/31 10:30:14;;;;;;;5.53;0.90;;;;;;;;;;5069428;28;20109;-85
2023/10/31 10:32:40;;;;;;;3.30;1.00;;;;;;;;;;5067386;28;20041;-85
2023/10/31 10:35:07;;;;;;;3.80;0.70;;;;;;;;;;5052091;28;20055;-85
2023/10/31 10:37:37;;;;;;;6.80;0.85;;;;;;;;;;5048952;28;20133;-85
2023/10/31 10:40:05;;;;;;;2.78;0.95;;;;;;;;;;5047075;28;20152;-85
2023/10/31 10:42:41;;;;;;;2.65;0.60;;;;;;;;;;5048301;28;20114;-83
2023/10/31 10:45:11;;;;;;;6.03;0.90;;;;;;;;;;5048451;28;20037;-82
2023/10/31 10:47:37;;;;;;;4.97;0.75;;;;;;;;;;5048496;28;20040;-85
2023/10/31 10:50:06;;;;;;;3.88;0.75;;;;;;;;;;5055109;28;20043;-83
2023/10/31 10:53:11;;;;;;;7.93;1.20;;;;;;;;;;5051139;28;20044;-83
2023/10/31 10:55:40;;;;;;;7.95;1.02;;;;;;;;;;5010539;28;20065;-81
2023/10/31 10:58:09;;;;;;;7.35;1.48;;;;;;;;;;5011914;28;20481;-86
2023/10/31 11:00:35;;;;;;;2.63;0.77;;;;;;;;;;5041184;28;20426;-85
2023/10/31 11:03:03;;;;;;;3.83;0.80;;;;;;;;;;5050398;28;20562;-85
2023/10/31 11:05:29;;;;;;;4.85;0.90;;;;;;;;;;5064432;28;20049;-85
2023/10/31 11:07:57;;;;;;;5.13;1.48;;;;;;;;;;5045352;28;20095;-84
2023/10/31 11:10:23;;;;;;;5.07;1.15;;;;;;;;;;5050210;28;20047;-85
2023/10/31 11:12:50;;;;;;;6.20;1.02;;;;;;;;;;5048137;28;20128;-85
2023/10/31 11:15:18;;;;;;;8.77;1.00;;;;;;;;;;5048864;28;20488;-83
2023/10/31 11:17:45;;;;;;;6.63;1.20;;;;;;;;;;5069772;28;20090;-84
2023/10/31 11:20:14;;;;;;;10.40;1.30;;;;;;;;;;5066294;28;20496;-85
2023/10/31 11:22:40;;;;;;;5.80;1.27;;;;;;;;;;5051071;28;20078;-85
2023/10/31 11:25:08;;;;;;;4.97;1.10;;;;;;;;;;5056900;28;20040;-84
2023/10/31 11:27:37;;;;;;;7.63;1.08;;;;;;;;;;5070013;28;20067;-86
2023/10/31 11:30:07;;;;;;;8.82;1.42;;;;;;;;;;5051799;28;20066;-87
2023/10/31 11:32:33;;;;;;;8.30;1.33;;;;;;;;;;5069722;28;20068;-87
2023/10/31 11:35:01;;;;;;;6.07;1.65;;;;;;;;;;5054634;28;20490;-85
2023/10/31 11:37:31;;;;;;;7.78;1.05;;;;;;;;;;5051959;28;20055;-85
2023/10/31 11:40:16;;;;;;;6.78;1.55;;;;;;;;;;5058310;28;20040;-85
2023/10/31 11:42:42;;;;;;;8.45;1.75;;;;;;;;;;5051637;28;20927;-87
2023/10/31 11:45:09;;;;;;;5.95;1.02;;;;;;;;;;5071144;28;20049;-88
2023/10/31 11:47:48;;;;;;;8.85;1.10;;;;;;;;;;5074110;28;20373;-88
2023/10/31 11:50:14;;;;;;;9.25;1.80;;;;;;;;;;5056261;28;20051;-87
2023/10/31 11:52:40;;;;;;;9.52;1.25;;;;;;;;;;5040502;28;20475;-88
2023/10/31 11:55:13;;;;;;;7.13;1.30;;;;;;;;;;5073096;28;20044;-87
2023/10/31 11:57:39;;;;;;;7.30;1.73;;;;;;;;;;5073333;28;20036;-87
2023/10/31 12:00:07;;;;;;;9.45;1.65;;;;;;;;;;5057418;28;20060;-88
2023/10/31 12:02:33;;;;;;;4.07;1.08;;;;;;;;;;5072509;28;20087;-88
2023/10/31 12:05:14;;;;;;;7.53;1.25;;;;;;;;;;5038505;28;20500;-88
2023/10/31 12:07:46;;;;;;;13.95;1.60;;;;;;;;;;5054930;28;20542;-83
2023/10/31 12:10:13;;;;;;;7.15;1.17;;;;;;;;;;5055501;28;20040;-86
2023/10/31 12:12:39;;;;;;;8.20;1.20;;;;;;;;;;5071348;28;20040;-88
2023/10/31 12:15:06;;;;;;;12.32;1.65;;;;;;;;;;5057408;28;20051;-88
2023/10/31 12:17:33;;;;;;;5.38;1.10;;;;;;;;;;5051674;28;20105;-88
2023/10/31 12:20:03;;;;;;;13.05;1.98;;;;;;;;;;5055825;28;20602;-88
2023/10/31 12:22:29;;;;;;;4.05;1.60;;;;;;;;;;5072313;28;20047;-88
2023/10/31 12:25:05;;;;;;;7.60;1.10;;;;;;;;;;5047777;28;20029;-87
2023/10/31 12:27:46;;;;;;;10.30;1.70;;;;;;;;;;5055266;28;20082;-89
2023/10/31 12:30:13;;;;;;;6.55;1.27;;;;;;;;;;5054286;28;20039;-88
2023/10/31 12:32:43;;;;;;;11.57;1.08;;;;;;;;;;5053879;28;20084;-88
2023/10/31 12:35:15;;;;;;;11.95;1.38;;;;;;;;;;5069937;28;20041;-88
2023/10/31 12:37:49;;;;;;;7.78;1.58;;;;;;;;;;5067628;28;20036;-87
2023/10/31 12:40:19;;;;;;;6.80;1.20;;;;;;;;;;5051150;28;20092;-87
2023/10/31 12:42:46;;;;;;;5.85;1.10;;;;;;;;;;5053075;28;20040;-87
2023/10/31 12:45:12;;;;;;;11.15;1.55;;;;;;;;;;5068842;28;20045;-87
2023/10/31 12:47:39;;;;;;;9.23;1.65;;;;;;;;;;5054310;28;20129;-86
2023/10/31 12:50:15;;;;;;;8.57;1.45;;;;;;;;;;5052063;28;20036;-88
2023/10/31 12:52:51;;;;;;;9.38;1.05;;;;;;;;;;5051394;28;20037;-88
2023/10/31 12:55:19;;;;;;;5.50;1.20;;;;;;;;;;5065114;28;20057;-88
2023/10/31 12:57:46;;;;;;;8.27;1.08;;;;;;;;;;5050945;28;20090;-87
2023/10/31 13:00:12;;;;;;;6.93;1.10;;;;;;;;;;5054484;28;20048;-87
2023/10/31 13:02:42;;;;;;;7.55;1.25;;;;;;;;;;5052347;28;20033;-87
2023/10/31 13:05:09;;;;;;;5.47;1.73;;;;;;;;;;5048331;28;20898;-89
2023/10/31 13:07:35;;;;;;;8.23;1.35;;;;;;;;;;5069355;28;20087;-86
2023/10/31 13:10:01;;;;;;;7.45;0.90;;;;;;;;;;5072713;28;20082;-88
2023/10/31 13:12:27;;;;;;;7.93;1.10;;;;;;;;;;5044183;28;20040;-88
2023/10/31 13:14:54;;;;;;;9.52;1.20;;;;;;;;;;5054603;28;20101;-87
2023/10/31 13:17:20;;;;;;;11.25;1.10;;;;;;;;;;5052081;28;20396;-87
2023/10/31 13:19:46;;;;;;;10.35;1.10;;;;;;;;;;5054443;28;20080;-88
2023/10/31 13:22:12;;;;;;;5.40;0.98;;;;;;;;;;5039948;28;20040;-88
2023/10/31 13:24:40;;;;;;;5.38;1.13;;;;;;;;;;5067034;28;20079;-87
2023/10/31 13:27:07;;;;;;;4.85;0.65;;;;;;;;;;5037263;28;20037;-88
2023/10/31 13:29:33;;;;;;;4.57;0.90;;;;;;;;;;5053999;28;20045;-88
2023/10/31 13:31:59;;;;;;;7.88;1.17;;;;;;;;;;5042599;28;20487;-87
2023/10/31 13:34:25;;;;;;;6.82;1.10;;;;;;;;;;5073161;28;20456;-87
2023/10/31 13:36:53;;;;;;;8.38;1.00;;;;;;;;;;5056865;28;20100;-87
2023/10/31 13:39:19;;;;;;;10.32;1.15;;;;;;;;;;5053204;28;20044;-88
2023/10/31 13:41:45;;;;;;;5.85;1.20;;;;;;;;;;5036098;28;20033;-88
2023/10/31 13:44:11;;;;;;;6.00;1.48;;;;;;;;;;5054788;28;20040;-89
2023/10/31 13:46:37;;;;;;;4.63;0.85;;;;;;;;;;5070693;28;20040;-85
2023/10/31 13:49:04;;;;;;;5.47;2.30;;;;;;;;;;5050490;28;20036;-87
2023/10/31 13:51:30;;;;;;;7.53;0.93;;;;;;;;;;5054517;28;20049;-87
2023/10/31 13:53:56;;;;;;;3.22;0.80;;;;;;;;;;5053295;28;20480;-86
2023/10/31 13:56:22;;;;;;;5.25;0.80;;;;;;;;;;5049905;28;20067;-89
2023/10/31 13:58:48;;;;;;;7.70;0.95;;;;;;;;;;5071719;28;20116;-89
2023/10/31 14:01:15;;;;;;;4.55;1.17;;;;;;;;;;5057213;28;20499;-89
2023/10/31 14:03:44;;;;;;;5.35;0.80;;;;;;;;;;5042385;28;20427;-88
2023/10/31 14:06:11;;;;;;;5.03;0.90;;;;;;;;;;5072163;28;20049;-88
2023/10/31 14:08:37;;;;;;;7.63;1.20;;;;;;;;;;5074482;28;20108;-88
2023/10/31 14:11:04;;;;;;;8.73;0.95;;;;;;;;;;5040855;28;20060;-88
2023/10/31 14:13:30;;;;;;;4.50;0.90;;;;;;;;;;5057851;28;20040;-87
2023/10/31 14:15:56;;;;;;;3.80;0.57;;;;;;;;;;5056514;28;20032;-89
2023/10/31 14:18:22;;;;;;;3.47;0.80;;;;;;;;;;5040592;28;20548;-90
2023/10/31 14:20:48;;;;;;;6.85;1.08;;;;;;;;;;5058161;28;20081;-89
2023/10/31 14:23:14;;;;;;;8.43;0.98;;;;;;;;;;5089927;28;20151;-87
2023/10/31 14:25:41;;;;;;;8.05;0.90;;;;;;;;;;5056195;28;20048;-89
2023/10/31 14:28:07;;;;;;;6.88;0.93;;;;;;;;;;5057396;28;20452;-89
2023/10/31 14:30:33;;;;;;;8.23;0.85;;;;;;;;;;5054877;28;20283;-87
2023/10/31 14:32:59;;;;;;;6.80;1.13;;;;;;;;;;5054886;28;20037;-87
2023/10/31 14:35:25;;;;;;;5.85;1.30;;;;;;;;;;5067342;28;20123;-88